Time;durP1;ratioP1;P1;durP2;ratioP2;P2;SDS_P1;SDS_P2;PMS_P1;PMS_P2;Temp;Humidity;BMP_temperature;BMP_pressure;BME280_temperature;BME280_humidity;BME280_pressure;Samples;Min_cycle;Max_cycle;Signal;HPM_P1;HPM_P2
2023/04/13 00:02:14;;;;;;;;;;;6.40;88.80;;;;;;5028597;28;20419;-73
2023/04/13 00:04:41;;;;;;;;;;;6.40;88.80;;;;;;5028698;28;20059;-73
2023/04/13 00:07:13;;;;;;;;;;;6.40;88.90;;;;;;5010763;28;20293;-73
2023/04/13 00:09:39;;;;;;;;;;;6.40;88.90;;;;;;5028705;28;19913;-73
2023/04/13 00:12:04;;;;;;;;;;;6.40;88.90;;;;;;5028643;28;20386;-74
2023/04/13 00:14:33;;;;;;;;;;;6.40;88.80;;;;;;5028594;28;19979;-73
2023/04/13 00:16:59;;;;;;;;;;;6.40;88.90;;;;;;5028469;28;19912;-73
2023/04/13 00:19:24;;;;;;;;;;;6.30;88.80;;;;;;5028526;28;19909;-73
2023/04/13 00:21:52;;;;;;;;;;;6.30;88.80;;;;;;5028802;28;19926;-73
2023/04/13 00:24:18;;;;;;;;;;;6.30;88.80;;;;;;5028400;28;20008;-73
2023/04/13 00:26:44;;;;;;;;;;;6.30;88.80;;;;;;5028230;28;19913;-73
2023/04/13 00:29:10;;;;;;;;;;;6.30;88.70;;;;;;5028322;28;19935;-73
2023/04/13 00:31:36;;;;;;;;;;;6.30;88.70;;;;;;5028068;28;20365;-73
2023/04/13 00:34:02;;;;;;;;;;;6.30;88.80;;;;;;5028480;28;19917;-73
2023/04/13 00:36:28;;;;;;;;;;;6.20;88.70;;;;;;5028145;28;19935;-72
2023/04/13 00:38:56;;;;;;;;;;;6.20;88.80;;;;;;5010459;28;20325;-73
2023/04/13 00:41:23;;;;;;;;;;;6.20;88.70;;;;;;5028109;28;19978;-73
2023/04/13 00:43:49;;;;;;;;;;;6.20;88.80;;;;;;5028107;28;19999;-72
2023/04/13 00:46:16;;;;;;;;;;;6.20;88.80;;;;;;5010223;28;19921;-73
2023/04/13 00:48:44;;;;;;;;;;;6.20;88.80;;;;;;5027961;28;19917;-73
2023/04/13 00:51:10;;;;;;;;;;;6.20;88.80;;;;;;5027989;28;19917;-73
2023/04/13 00:53:36;;;;;;;;;;;6.20;88.80;;;;;;5028080;28;19920;-73
2023/04/13 00:56:04;;;;;;;;;;;6.20;88.80;;;;;;5027913;28;19918;-73
2023/04/13 00:58:31;;;;;;;;;;;6.20;88.80;;;;;;5027842;28;19920;-73
2023/04/13 01:00:56;;;;;;;;;;;6.20;88.80;;;;;;5028006;28;19936;-73
2023/04/13 01:03:22;;;;;;;;;;;6.10;88.70;;;;;;5027924;28;19909;-73
2023/04/13 01:06:00;;;;;;;;;;;6.10;88.80;;;;;;5027818;28;20392;-73
2023/04/13 01:08:30;;;;;;;;;;;6.10;88.80;;;;;;5027866;28;19917;-72
2023/04/13 01:11:19;;;;;;;;;;;6.10;88.80;;;;;;5010033;28;19948;-73
2023/04/13 01:13:47;;;;;;;;;;;6.10;88.80;;;;;;5019444;28;19913;-73
2023/04/13 01:16:18;;;;;;;;;;;6.10;88.80;;;;;;5027776;28;19916;-73
2023/04/13 01:18:45;;;;;;;;;;;6.10;88.80;;;;;;5027795;28;19971;-73
2023/04/13 01:21:13;;;;;;;;;;;6.20;88.80;;;;;;5027782;28;19913;-73
2023/04/13 01:23:45;;;;;;;;;;;6.10;88.80;;;;;;5027780;28;19959;-73
2023/04/13 01:26:11;;;;;;;;;;;6.10;88.80;;;;;;5027658;28;19960;-73
2023/04/13 01:28:37;;;;;;;;;;;6.10;88.70;;;;;;5027678;28;19914;-72
2023/04/13 01:31:10;;;;;;;;;;;6.10;88.70;;;;;;5027820;28;19920;-70
2023/04/13 01:33:39;;;;;;;;;;;6.10;88.70;;;;;;5027784;28;19909;-72
2023/04/13 01:36:06;;;;;;;;;;;6.10;88.70;;;;;;5027755;28;20008;-70
2023/04/13 01:38:32;;;;;;;;;;;6.10;88.80;;;;;;5027612;28;19909;-72
2023/04/13 01:40:57;;;;;;;;;;;6.10;88.80;;;;;;5027700;28;19986;-76
2023/04/13 01:43:24;;;;;;;;;;;6.10;88.80;;;;;;5009970;28;19913;-76
2023/04/13 01:45:57;;;;;;;;;;;6.10;88.80;;;;;;5027500;28;19948;-71
2023/04/13 01:48:26;;;;;;;;;;;6.10;88.70;;;;;;5009889;28;20421;-71
2023/04/13 01:50:55;;;;;;;;;;;6.10;88.70;;;;;;5027944;28;19910;-70
2023/04/13 01:53:27;;;;;;;;;;;6.00;88.70;;;;;;5009970;28;19924;-70
2023/04/13 01:55:54;;;;;;;;;;;6.00;88.70;;;;;;5027893;28;19976;-70
2023/04/13 01:58:22;;;;;;;;;;;6.00;88.70;;;;;;5028566;28;19913;-71
2023/04/13 02:00:47;;;;;;;;;;;5.90;88.60;;;;;;5031244;28;20367;-71
2023/04/13 02:03:14;;;;;;;;;;;5.90;88.60;;;;;;5013394;28;20008;-71
2023/04/13 02:05:39;;;;;;;;;;;6.00;88.70;;;;;;5031019;28;20339;-73
2023/04/13 02:08:06;;;;;;;;;;;5.90;88.60;;;;;;5031194;28;19922;-73
2023/04/13 02:10:33;;;;;;;;;;;5.90;88.60;;;;;;5030909;28;19909;-73
2023/04/13 02:12:59;;;;;;;;;;;5.90;88.60;;;;;;5031088;28;19909;-71
2023/04/13 02:15:25;;;;;;;;;;;5.80;88.50;;;;;;5030899;28;20388;-70
2023/04/13 02:17:51;;;;;;;;;;;5.80;88.50;;;;;;5030989;28;19920;-71
2023/04/13 02:20:17;;;;;;;;;;;5.80;88.60;;;;;;5030959;28;20277;-73
2023/04/13 02:22:42;;;;;;;;;;;5.80;88.50;;;;;;5030789;28;19920;-72
2023/04/13 02:25:10;;;;;;;;;;;5.80;88.50;;;;;;5030635;28;19917;-73
2023/04/13 02:27:37;;;;;;;;;;;5.80;88.50;;;;;;5030482;28;19913;-76
2023/04/13 02:30:04;;;;;;;;;;;5.70;88.50;;;;;;5030706;28;19913;-72
2023/04/13 02:32:31;;;;;;;;;;;5.70;88.50;;;;;;5030460;28;19929;-72
2023/04/13 02:34:58;;;;;;;;;;;5.70;88.50;;;;;;5030602;28;20230;-73
2023/04/13 02:37:24;;;;;;;;;;;5.70;88.50;;;;;;5030522;28;19956;-71
2023/04/13 02:39:50;;;;;;;;;;;5.60;88.40;;;;;;5030546;28;19917;-72
2023/04/13 02:42:16;;;;;;;;;;;5.60;88.40;;;;;;5012850;28;20365;-71
2023/04/13 02:44:41;;;;;;;;;;;5.60;88.40;;;;;;5030463;28;19944;-72
2023/04/13 02:47:08;;;;;;;;;;;5.60;88.40;;;;;;5030567;28;20385;-71
2023/04/13 02:49:33;;;;;;;;;;;5.60;88.50;;;;;;5012544;28;20255;-72
2023/04/13 02:51:59;;;;;;;;;;;5.60;88.50;;;;;;5030475;28;19939;-72
2023/04/13 02:54:25;;;;;;;;;;;5.60;88.50;;;;;;5030169;28;20362;-76
2023/04/13 02:56:50;;;;;;;;;;;5.60;88.50;;;;;;5012320;28;19913;-76
2023/04/13 02:59:16;;;;;;;;;;;5.60;88.50;;;;;;5012448;28;19913;-72
2023/04/13 03:01:44;;;;;;;;;;;5.60;88.50;;;;;;5029971;28;19959;-73
2023/04/13 03:04:10;;;;;;;;;;;5.60;88.50;;;;;;5030077;28;19928;-73
2023/04/13 03:06:36;;;;;;;;;;;5.60;88.50;;;;;;5029717;28;20484;-73
2023/04/13 03:09:02;;;;;;;;;;;5.60;88.50;;;;;;5029851;28;19963;-73
2023/04/13 03:11:27;;;;;;;;;;;5.50;88.40;;;;;;5029972;28;19913;-72
2023/04/13 03:13:53;;;;;;;;;;;5.60;88.40;;;;;;5029709;28;20008;-71
2023/04/13 03:16:19;;;;;;;;;;;5.50;88.40;;;;;;4995731;28;19913;-76
2023/04/13 03:18:45;;;;;;;;;;;5.50;88.40;;;;;;5029801;28;19929;-76
2023/04/13 03:21:11;;;;;;;;;;;5.50;88.40;;;;;;5029644;28;19932;-76
2023/04/13 03:23:37;;;;;;;;;;;5.50;88.40;;;;;;5011774;28;19963;-73
2023/04/13 03:26:03;;;;;;;;;;;5.50;88.40;;;;;;5029570;28;19913;-72
2023/04/13 03:28:28;;;;;;;;;;;5.50;88.40;;;;;;5029422;28;19964;-73
2023/04/13 03:30:54;;;;;;;;;;;5.40;88.30;;;;;;5029193;28;19959;-71
2023/04/13 03:33:20;;;;;;;;;;;5.40;88.30;;;;;;5011838;28;19936;-73
2023/04/13 03:35:46;;;;;;;;;;;5.40;88.30;;;;;;5029372;28;19964;-76
2023/04/13 03:38:11;;;;;;;;;;;5.40;88.40;;;;;;5029144;28;19936;-76
2023/04/13 03:40:37;;;;;;;;;;;5.40;88.40;;;;;;5029349;28;19919;-73
2023/04/13 03:43:02;;;;;;;;;;;5.40;88.40;;;;;;5029304;28;19920;-70
2023/04/13 03:45:28;;;;;;;;;;;5.30;88.30;;;;;;5029180;28;19910;-71
2023/04/13 03:47:54;;;;;;;;;;;5.30;88.20;;;;;;5029128;28;19916;-71
2023/04/13 03:50:19;;;;;;;;;;;5.30;88.30;;;;;;5029221;28;19916;-71
2023/04/13 03:52:45;;;;;;;;;;;5.30;88.20;;;;;;5029197;28;19917;-71
2023/04/13 03:55:10;;;;;;;;;;;5.20;88.20;;;;;;5029117;28;19913;-71
2023/04/13 03:57:36;;;;;;;;;;;5.20;88.20;;;;;;5011284;28;20063;-71
2023/04/13 04:00:02;;;;;;;;;;;5.20;88.20;;;;;;5011132;28;20365;-72
2023/04/13 04:02:28;;;;;;;;;;;5.20;88.20;;;;;;5028832;28;20282;-72
2023/04/13 04:04:53;;;;;;;;;;;5.10;88.20;;;;;;5011176;28;19917;-71
2023/04/13 04:07:22;;;;;;;;;;;5.10;88.20;;;;;;5028078;28;20468;-72
2023/04/13 04:09:47;;;;;;;;;;;5.10;88.20;;;;;;5028772;28;19909;-71
2023/04/13 04:12:14;;;;;;;;;;;5.10;88.20;;;;;;5028754;28;19920;-71
2023/04/13 04:14:40;;;;;;;;;;;5.10;88.30;;;;;;5028415;28;19971;-72
2023/04/13 04:17:05;;;;;;;;;;;5.10;88.30;;;;;;5028243;28;19925;-72
2023/04/13 04:19:31;;;;;;;;;;;5.10;88.30;;;;;;5028594;28;19913;-72
2023/04/13 04:21:56;;;;;;;;;;;5.00;88.20;;;;;;5027894;28;19967;-71
2023/04/13 04:24:22;;;;;;;;;;;5.00;88.20;;;;;;5010814;28;19909;-71
2023/04/13 04:26:53;;;;;;;;;;;5.00;88.20;;;;;;5028410;28;19913;-72
2023/04/13 04:29:28;;;;;;;;;;;5.00;88.20;;;;;;5028584;28;19909;-72
2023/04/13 04:31:54;;;;;;;;;;;5.00;88.20;;;;;;5028390;28;19920;-72
2023/04/13 04:34:20;;;;;;;;;;;5.00;88.20;;;;;;5010629;28;20300;-72
2023/04/13 04:36:49;;;;;;;;;;;4.90;88.10;;;;;;5028387;28;19910;-72
2023/04/13 04:39:20;;;;;;;;;;;4.90;88.10;;;;;;5028383;28;19913;-72
2023/04/13 04:41:53;;;;;;;;;;;4.90;88.10;;;;;;5010405;28;19916;-72
2023/04/13 04:44:23;;;;;;;;;;;4.90;88.20;;;;;;5028213;28;19955;-72
2023/04/13 04:46:51;;;;;;;;;;;4.90;88.10;;;;;;5028080;28;20425;-72
2023/04/13 04:49:17;;;;;;;;;;;4.90;88.20;;;;;;5028198;28;19917;-72
2023/04/13 04:51:43;;;;;;;;;;;4.90;88.20;;;;;;5010591;28;20251;-72
2023/04/13 04:54:08;;;;;;;;;;;4.90;88.20;;;;;;5010277;28;19958;-71
2023/04/13 04:56:34;;;;;;;;;;;4.90;88.20;;;;;;5010227;28;20016;-71
2023/04/13 04:58:59;;;;;;;;;;;4.80;88.10;;;;;;5027820;28;20392;-72
2023/04/13 05:01:25;;;;;;;;;;;4.90;88.20;;;;;;5028355;28;19914;-72
2023/04/13 05:03:51;;;;;;;;;;;4.90;88.10;;;;;;5027938;28;19913;-72
2023/04/13 05:06:17;;;;;;;;;;;4.80;88.10;;;;;;5027933;28;20028;-72
2023/04/13 05:08:43;;;;;;;;;;;4.80;88.10;;;;;;5009785;28;20007;-72
2023/04/13 05:11:09;;;;;;;;;;;4.80;88.10;;;;;;5027763;28;20207;-71
2023/04/13 05:13:35;;;;;;;;;;;4.80;88.10;;;;;;5027845;28;19909;-72
2023/04/13 05:16:00;;;;;;;;;;;4.80;88.10;;;;;;5027895;28;19913;-72
2023/04/13 05:18:29;;;;;;;;;;;4.80;88.10;;;;;;5027704;28;19913;-71
2023/04/13 05:20:55;;;;;;;;;;;4.80;88.10;;;;;;5027775;28;20283;-72
2023/04/13 05:23:20;;;;;;;;;;;4.70;88.10;;;;;;5028046;28;19913;-72
2023/04/13 05:25:46;;;;;;;;;;;4.80;88.20;;;;;;5027663;28;19972;-71
2023/04/13 05:28:11;;;;;;;;;;;4.80;88.20;;;;;;5027702;28;19914;-72
2023/04/13 05:30:37;;;;;;;;;;;4.80;88.30;;;;;;5027580;28;19920;-72
2023/04/13 05:33:05;;;;;;;;;;;4.80;88.30;;;;;;5028193;28;19921;-71
2023/04/13 05:35:30;;;;;;;;;;;4.80;88.20;;;;;;5031680;28;19919;-72
2023/04/13 05:37:58;;;;;;;;;;;4.80;88.20;;;;;;5031514;28;19913;-72
2023/04/13 05:40:24;;;;;;;;;;;4.90;88.30;;;;;;5014229;28;19921;-72
2023/04/13 05:42:50;;;;;;;;;;;4.90;88.70;;;;;;5013860;28;19917;-72
2023/04/13 05:45:16;;;;;;;;;;;4.90;88.20;;;;;;5032064;28;19909;-72
2023/04/13 05:47:43;;;;;;;;;;;4.90;88.20;;;;;;5031373;28;19928;-71
2023/04/13 05:50:09;;;;;;;;;;;4.90;88.20;;;;;;4997713;28;20670;-72
2023/04/13 05:52:34;;;;;;;;;;;4.90;88.10;;;;;;5031376;28;19913;-72
2023/04/13 05:55:01;;;;;;;;;;;4.90;88.10;;;;;;5031289;28;20412;-72
2023/04/13 05:57:26;;;;;;;;;;;4.90;88.10;;;;;;5031265;28;19917;-72
2023/04/13 05:59:53;;;;;;;;;;;5.00;88.10;;;;;;5031116;28;19975;-72
2023/04/13 06:02:19;;;;;;;;;;;5.00;88.10;;;;;;5031199;28;19909;-72
2023/04/13 06:04:45;;;;;;;;;;;5.00;88.20;;;;;;5013842;28;20396;-72
2023/04/13 06:07:13;;;;;;;;;;;5.00;88.10;;;;;;5013235;28;20426;-72
2023/04/13 06:09:39;;;;;;;;;;;5.00;88.10;;;;;;5030875;28;20280;-71
2023/04/13 06:12:04;;;;;;;;;;;5.00;88.00;;;;;;5030855;28;20037;-72
2023/04/13 06:14:30;;;;;;;;;;;5.00;88.00;;;;;;4996773;28;19914;-72
2023/04/13 06:16:56;;;;;;;;;;;5.00;88.00;;;;;;5030917;28;19913;-72
2023/04/13 06:19:21;;;;;;;;;;;5.00;88.00;;;;;;5012903;28;19936;-72
2023/04/13 06:21:47;;;;;;;;;;;5.00;88.00;;;;;;5030776;28;19909;-72
2023/04/13 06:24:13;;;;;;;;;;;5.10;88.10;;;;;;5012971;28;19925;-72
2023/04/13 06:26:38;;;;;;;;;;;5.10;88.10;;;;;;5030505;28;19953;-72
2023/04/13 06:29:04;;;;;;;;;;;5.10;88.10;;;;;;5030336;28;19928;-72
2023/04/13 06:31:29;;;;;;;;;;;5.10;88.10;;;;;;5030376;28;20289;-72
2023/04/13 06:33:55;;;;;;;;;;;5.20;88.10;;;;;;5030463;28;19917;-71
2023/04/13 06:36:21;;;;;;;;;;;5.20;88.10;;;;;;5030297;28;19917;-72
2023/04/13 06:38:46;;;;;;;;;;;5.20;88.10;;;;;;5030239;28;19913;-72
2023/04/13 06:41:12;;;;;;;;;;;5.30;88.20;;;;;;5012647;28;19913;-72
2023/04/13 06:43:37;;;;;;;;;;;5.30;88.20;;;;;;5029900;28;20420;-72
2023/04/13 06:46:03;;;;;;;;;;;5.40;88.20;;;;;;5030160;28;19928;-72
2023/04/13 06:48:29;;;;;;;;;;;5.40;88.20;;;;;;5030194;28;19920;-72
2023/04/13 06:50:55;;;;;;;;;;;5.50;88.30;;;;;;5012737;28;19920;-72
2023/04/13 06:53:20;;;;;;;;;;;5.60;88.30;;;;;;5029827;28;20176;-72
2023/04/13 06:55:46;;;;;;;;;;;5.60;88.30;;;;;;5030014;28;19959;-72
2023/04/13 06:58:12;;;;;;;;;;;5.70;88.40;;;;;;5030034;28;20267;-72
2023/04/13 07:00:37;;;;;;;;;;;5.80;88.40;;;;;;4995865;28;19913;-72
2023/04/13 07:03:03;;;;;;;;;;;5.90;88.50;;;;;;5029856;28;19949;-72
2023/04/13 07:05:29;;;;;;;;;;;6.10;88.90;;;;;;5029643;28;20332;-71
2023/04/13 07:07:55;;;;;;;;;;;6.40;88.90;;;;;;5029646;28;19931;-72
2023/04/13 07:10:21;;;;;;;;;;;6.90;89.10;;;;;;5029561;28;20003;-72
2023/04/13 07:12:47;;;;;;;;;;;7.40;89.10;;;;;;5029787;28;20000;-72
2023/04/13 07:15:12;;;;;;;;;;;7.70;88.00;;;;;;5029675;28;19920;-73
2023/04/13 07:17:38;;;;;;;;;;;7.70;87.30;;;;;;5029465;28;19914;-72
2023/04/13 07:20:04;;;;;;;;;;;7.60;87.50;;;;;;5029666;28;20333;-73
2023/04/13 07:22:31;;;;;;;;;;;7.50;87.70;;;;;;5029484;28;20396;-72
2023/04/13 07:24:57;;;;;;;;;;;7.50;88.20;;;;;;5029556;28;19913;-72
2023/04/13 07:27:22;;;;;;;;;;;7.70;89.20;;;;;;5029449;28;19924;-72
2023/04/13 07:29:51;;;;;;;;;;;8.40;90.20;;;;;;5029215;28;20381;-71
2023/04/13 07:32:17;;;;;;;;;;;9.40;90.20;;;;;;5029146;28;20407;-72
2023/04/13 07:34:42;;;;;;;;;;;10.00;88.60;;;;;;5011165;28;19949;-73
2023/04/13 07:37:08;;;;;;;;;;;10.10;87.60;;;;;;5028795;28;20281;-73
2023/04/13 07:39:34;;;;;;;;;;;10.10;88.00;;;;;;5029028;28;20007;-73
2023/04/13 07:42:00;;;;;;;;;;;10.40;88.70;;;;;;5029014;28;19931;-73
2023/04/13 07:44:26;;;;;;;;;;;10.70;88.50;;;;;;5028906;28;19917;-72
2023/04/13 07:46:53;;;;;;;;;;;11.00;88.70;;;;;;5028556;28;19939;-73
2023/04/13 07:49:18;;;;;;;;;;;11.40;88.90;;;;;;5028788;28;20191;-73
2023/04/13 07:51:44;;;;;;;;;;;12.00;89.50;;;;;;5028624;28;20277;-72
2023/04/13 07:54:10;;;;;;;;;;;12.80;89.90;;;;;;5028502;28;20039;-70
2023/04/13 07:56:36;;;;;;;;;;;13.90;90.00;;;;;;5027686;28;19909;-70
2023/04/13 07:59:01;;;;;;;;;;;14.80;89.50;;;;;;5028475;28;19979;-70
2023/04/13 08:01:27;;;;;;;;;;;15.70;89.10;;;;;;5028213;28;19913;-70
2023/04/13 08:03:53;;;;;;;;;;;16.30;88.70;;;;;;5028375;28;19913;-70
2023/04/13 08:06:22;;;;;;;;;;;16.90;88.70;;;;;;5028283;28;19917;-70
2023/04/13 08:08:47;;;;;;;;;;;17.50;88.90;;;;;;5028359;28;19917;-70
2023/04/13 08:11:13;;;;;;;;;;;18.00;88.80;;;;;;5028403;28;19913;-70
2023/04/13 08:13:39;;;;;;;;;;;18.50;88.80;;;;;;5028221;28;20081;-70
2023/04/13 08:16:05;;;;;;;;;;;18.90;88.90;;;;;;5028216;28;19963;-70
2023/04/13 08:18:31;;;;;;;;;;;19.20;88.90;;;;;;5028365;28;19909;-70
2023/04/13 08:20:57;;;;;;;;;;;19.40;88.80;;;;;;5028000;28;19916;-70
2023/04/13 08:23:23;;;;;;;;;;;19.70;88.90;;;;;;5027965;28;19916;-70
2023/04/13 08:25:48;;;;;;;;;;;20.00;89.60;;;;;;5027824;28;20282;-70
2023/04/13 08:28:14;;;;;;;;;;;20.40;89.70;;;;;;5027741;28;20496;-70
2023/04/13 08:30:40;;;;;;;;;;;20.70;89.60;;;;;;5027830;28;20477;-70
2023/04/13 08:33:06;;;;;;;;;;;20.80;89.60;;;;;;5027890;28;19980;-70
2023/04/13 08:35:32;;;;;;;;;;;21.00;89.80;;;;;;5027750;28;19966;-70
2023/04/13 08:37:58;;;;;;;;;;;21.30;89.70;;;;;;5027358;28;20377;-71
2023/04/13 08:40:24;;;;;;;;;;;21.50;89.90;;;;;;5009564;28;19935;-71
2023/04/13 08:42:50;;;;;;;;;;;21.20;89.00;;;;;;5009353;28;19927;-71
2023/04/13 08:45:17;;;;;;;;;;;21.20;90.00;;;;;;5028523;28;19913;-71
2023/04/13 08:47:42;;;;;;;;;;;21.40;90.50;;;;;;5037527;28;19924;-71
2023/04/13 08:50:08;;;;;;;;;;;21.60;90.10;;;;;;5038903;28;19996;-71
2023/04/13 08:52:35;;;;;;;;;;;21.70;90.20;;;;;;5019380;28;19952;-71
2023/04/13 08:55:03;;;;;;;;;;;22.00;90.30;;;;;;5038121;28;20377;-71
2023/04/13 08:57:29;;;;;;;;;;;22.10;90.20;;;;;;5038514;28;20004;-70
2023/04/13 08:59:56;;;;;;;;;;;22.30;90.30;;;;;;5036734;28;19944;-71
2023/04/13 09:02:23;;;;;;;;;;;22.40;90.40;;;;;;5003354;28;20353;-71
2023/04/13 09:04:49;;;;;;;;;;;22.40;90.20;;;;;;5039003;28;20330;-71
2023/04/13 09:07:17;;;;;;;;;;;22.50;90.20;;;;;;5039501;28;19967;-71
2023/04/13 09:09:44;;;;;;;;;;;22.50;90.20;;;;;;5042496;28;19913;-71
2023/04/13 09:12:10;;;;;;;;;;;22.50;90.20;;;;;;5044798;28;20349;-71
2023/04/13 09:14:37;;;;;;;;;;;22.60;90.40;;;;;;5043875;28;19924;-71
2023/04/13 09:17:02;;;;;;;;;;;22.70;90.50;;;;;;5041810;28;20003;-71
2023/04/13 09:19:29;;;;;;;;;;;23.10;90.60;;;;;;5045298;28;19999;-71
2023/04/13 09:21:55;;;;;;;;;;;23.20;90.50;;;;;;5044418;28;20020;-71
2023/04/13 09:24:20;;;;;;;;;;;23.30;90.30;;;;;;5048389;28;20342;-71
2023/04/13 09:26:47;;;;;;;;;;;23.30;90.30;;;;;;5027392;28;19935;-72
2023/04/13 09:29:15;;;;;;;;;;;23.50;90.40;;;;;;5045714;28;19916;-71
2023/04/13 09:31:41;;;;;;;;;;;23.60;90.40;;;;;;5046023;28;20316;-71
2023/04/13 09:34:09;;;;;;;;;;;23.70;90.70;;;;;;5026921;28;19916;-72
2023/04/13 09:36:35;;;;;;;;;;;23.80;90.50;;;;;;5044523;28;20320;-72
2023/04/13 09:39:01;;;;;;;;;;;23.90;90.50;;;;;;5040829;28;19915;-71
2023/04/13 09:41:28;;;;;;;;;;;23.90;90.40;;;;;;5047707;28;19919;-71
2023/04/13 09:43:54;;;;;;;;;;;23.90;90.20;;;;;;5044656;28;19993;-71
2023/04/13 09:46:19;;;;;;;;;;;24.00;90.40;;;;;;5042858;28;20028;-72
2023/04/13 09:48:45;;;;;;;;;;;24.20;90.60;;;;;;5045686;28;20306;-71
2023/04/13 09:51:11;;;;;;;;;;;24.40;90.60;;;;;;5042939;28;19917;-72
2023/04/13 09:53:46;;;;;;;;;;;24.70;90.70;;;;;;5044935;28;20006;-72
2023/04/13 09:56:11;;;;;;;;;;;24.80;90.70;;;;;;5043723;28;19909;-71
2023/04/13 09:58:44;;;;;;;;;;;24.60;90.20;;;;;;5057607;28;19912;-72
2023/04/13 10:01:10;;;;;;;;;;;24.60;90.40;;;;;;5056159;28;19919;-72
2023/04/13 10:03:36;;;;;;;;;;;25.00;90.90;;;;;;5056821;28;19908;-77
2023/04/13 10:06:06;;;;;;;;;;;25.00;90.40;;;;;;5074595;28;19912;-75
2023/04/13 10:08:33;;;;;;;;;;;24.30;90.00;;;;;;5075020;28;20280;-80
2023/04/13 10:10:59;;;;;;;;;;;23.90;90.70;;;;;;5075097;28;19919;-77
2023/04/13 10:13:26;;;;;;;;;;;24.00;90.70;;;;;;5075157;28;19993;-77
2023/04/13 10:16:11;;;;;;;;;;;23.90;90.70;;;;;;5075378;28;20452;-78
2023/04/13 10:18:43;;;;;;;;;;;24.00;90.80;;;;;;5073610;28;19909;-73
2023/04/13 10:21:08;;;;;;;;;;;24.20;90.70;;;;;;5070586;28;20295;-77
2023/04/13 10:23:34;;;;;;;;;;;24.40;90.60;;;;;;5071862;28;19934;-76
2023/04/13 10:26:02;;;;;;;;;;;24.20;90.20;;;;;;5071536;28;19924;-73
2023/04/13 10:28:28;;;;;;;;;;;24.00;90.40;;;;;;5071762;28;20459;-78
2023/04/13 10:30:54;;;;;;;;;;;24.20;90.90;;;;;;5053314;28;20023;-76
2023/04/13 10:33:19;;;;;;;;;;;24.70;91.10;;;;;;5071135;28;20582;-77
2023/04/13 10:35:55;;;;;;;;;;;25.10;91.00;;;;;;5070479;28;19913;-77
2023/04/13 10:38:21;;;;;;;;;;;25.60;91.10;;;;;;5070987;28;19955;-76
2023/04/13 10:40:47;;;;;;;;;;;26.10;91.00;;;;;;5071229;28;19952;-77
2023/04/13 10:43:28;;;;;;;;;;;26.40;91.00;;;;;;5070390;28;20538;-77
2023/04/13 10:46:23;;;;;;;;;;;26.50;90.50;;;;;;5071397;28;20396;-78
2023/04/13 10:48:53;;;;;;;;;;;25.60;89.90;;;;;;5053454;28;19930;-76
2023/04/13 10:51:18;;;;;;;;;;;24.30;89.60;;;;;;5070750;28;20380;-79
2023/04/13 10:53:44;;;;;;;;;;;23.50;89.90;;;;;;5071533;28;19919;-78
2023/04/13 10:56:15;;;;;;;;;;;22.40;89.40;;;;;;5070916;28;19916;-77
2023/04/13 10:58:41;;;;;;;;;;;21.50;90.10;;;;;;5071137;28;19958;-77
2023/04/13 11:01:09;;;;;;;;;;;20.90;90.80;;;;;;5070569;28;19932;-77
2023/04/13 11:03:36;;;;;;;;;;;20.80;91.00;;;;;;5052714;28;20268;-77
2023/04/13 11:06:02;;;;;;;;;;;20.80;91.00;;;;;;5052139;28;19999;-79
2023/04/13 11:08:29;;;;;;;;;;;20.70;91.00;;;;;;5070728;28;19917;-79
2023/04/13 11:10:56;;;;;;;;;;;20.50;90.50;;;;;;5070808;28;20233;-79
2023/04/13 11:13:24;;;;;;;;;;;20.10;90.60;;;;;;5070695;28;19935;-79
2023/04/13 11:15:50;;;;;;;;;;;20.10;91.00;;;;;;5046754;28;19919;-78
2023/04/13 11:18:26;;;;;;;;;;;20.80;91.50;;;;;;5050447;28;19909;-76
2023/04/13 11:20:51;;;;;;;;;;;21.00;90.70;;;;;;5050032;28;19909;-77
2023/04/13 11:23:18;;;;;;;;;;;21.30;91.40;;;;;;5045680;28;20327;-78
2023/04/13 11:25:56;;;;;;;;;;;22.10;91.60;;;;;;5037995;28;19909;-77
2023/04/13 11:28:23;;;;;;;;;;;22.60;91.00;;;;;;5040117;28;20015;-77
2023/04/13 11:30:55;;;;;;;;;;;22.40;90.50;;;;;;5035201;28;19972;-78
2023/04/13 11:33:25;;;;;;;;;;;21.90;90.10;;;;;;5036165;28;20258;-77
2023/04/13 11:35:52;;;;;;;;;;;21.20;90.00;;;;;;5039580;28;20313;-78
2023/04/13 11:38:19;;;;;;;;;;;20.50;89.60;;;;;;5038672;28;19928;-78
2023/04/13 11:40:46;;;;;;;;;;;20.20;90.80;;;;;;5018459;28;20288;-76
2023/04/13 11:43:13;;;;;;;;;;;20.90;91.70;;;;;;5037877;28;19916;-78
2023/04/13 11:45:38;;;;;;;;;;;21.80;91.80;;;;;;5035178;28;20329;-78
2023/04/13 11:48:06;;;;;;;;;;;22.40;91.30;;;;;;5038649;28;19917;-78
2023/04/13 11:50:32;;;;;;;;;;;23.00;91.30;;;;;;5038670;28;20268;-77
2023/04/13 11:52:58;;;;;;;;;;;23.10;90.70;;;;;;5049671;28;19909;-77
2023/04/13 11:55:24;;;;;;;;;;;23.30;90.90;;;;;;5049055;28;19909;-75
2023/04/13 11:57:51;;;;;;;;;;;23.60;91.10;;;;;;5048420;28;19921;-77
2023/04/13 12:00:18;;;;;;;;;;;23.40;90.40;;;;;;5030400;28;19917;-75
2023/04/13 12:02:44;;;;;;;;;;;22.70;89.50;;;;;;5045123;28;19959;-76
2023/04/13 12:05:23;;;;;;;;;;;21.80;89.80;;;;;;5049735;28;19931;-78
2023/04/13 12:07:50;;;;;;;;;;;21.90;90.90;;;;;;5049040;28;19927;-77
2023/04/13 12:10:35;;;;;;;;;;;22.00;90.80;;;;;;5049479;28;19967;-77
2023/04/13 12:13:05;;;;;;;;;;;21.70;90.80;;;;;;5030758;28;19952;-77
2023/04/13 12:15:36;;;;;;;;;;;21.80;91.30;;;;;;5044344;28;20044;-76
2023/04/13 12:18:02;;;;;;;;;;;22.30;91.10;;;;;;5035051;28;19916;-71
2023/04/13 12:20:35;;;;;;;;;;;22.40;91.00;;;;;;5039917;28;19913;-70
2023/04/13 12:23:01;;;;;;;;;;;22.70;91.10;;;;;;5036585;28;19994;-70
2023/04/13 12:25:28;;;;;;;;;;;23.20;91.20;;;;;;5048069;28;19909;-70
2023/04/13 12:27:53;;;;;;;;;;;23.50;91.20;;;;;;5048544;28;19920;-70
2023/04/13 12:30:20;;;;;;;;;;;23.60;90.90;;;;;;5047728;28;19917;-70
2023/04/13 12:32:46;;;;;;;;;;;23.70;90.90;;;;;;5047978;28;19944;-70
2023/04/13 12:35:12;;;;;;;;;;;23.80;91.10;;;;;;5030256;28;19913;-71
2023/04/13 12:37:39;;;;;;;;;;;24.00;91.20;;;;;;5048419;28;19919;-72
2023/04/13 12:40:08;;;;;;;;;;;24.00;90.70;;;;;;5048053;28;20273;-71
2023/04/13 12:42:33;;;;;;;;;;;23.90;90.80;;;;;;5030002;28;19920;-71
2023/04/13 12:44:59;;;;;;;;;;;24.00;91.10;;;;;;5048107;28;20276;-71
2023/04/13 12:47:25;;;;;;;;;;;24.10;90.90;;;;;;5013375;28;19921;-70
2023/04/13 12:49:50;;;;;;;;;;;24.10;91.00;;;;;;5029862;28;20050;-70
2023/04/13 12:52:16;;;;;;;;;;;24.40;91.30;;;;;;5048109;28;19912;-74
2023/04/13 12:54:41;;;;;;;;;;;24.70;91.30;;;;;;5047933;28;19921;-71
2023/04/13 12:57:07;;;;;;;;;;;24.60;90.60;;;;;;5030266;28;19913;-71
2023/04/13 12:59:32;;;;;;;;;;;24.20;90.60;;;;;;5048064;28;19951;-71
2023/04/13 13:01:58;;;;;;;;;;;23.90;90.50;;;;;;5029617;28;19920;-71
2023/04/13 13:04:24;;;;;;;;;;;23.30;90.10;;;;;;5047720;28;19940;-71
2023/04/13 13:06:49;;;;;;;;;;;22.30;89.20;;;;;;5047670;28;19983;-71
2023/04/13 13:09:15;;;;;;;;;;;21.20;89.10;;;;;;5047695;28;19944;-71
2023/04/13 13:11:40;;;;;;;;;;;20.30;90.00;;;;;;5047691;28;20393;-68
2023/04/13 13:14:06;;;;;;;;;;;20.00;91.00;;;;;;5048171;28;20437;-70
2023/04/13 13:16:32;;;;;;;;;;;20.10;91.00;;;;;;5047941;28;19913;-70
2023/04/13 13:18:57;;;;;;;;;;;20.10;91.00;;;;;;5048100;28;19928;-71
2023/04/13 13:21:23;;;;;;;;;;;20.10;91.00;;;;;;5048145;28;19956;-69
2023/04/13 13:23:49;;;;;;;;;;;20.20;91.10;;;;;;5026286;28;19925;-70
2023/04/13 13:26:14;;;;;;;;;;;20.30;91.10;;;;;;5021468;28;19921;-71
2023/04/13 13:28:41;;;;;;;;;;;20.30;91.00;;;;;;5015846;28;20272;-69
2023/04/13 13:31:07;;;;;;;;;;;20.30;91.00;;;;;;5039993;28;19940;-69
2023/04/13 13:33:33;;;;;;;;;;;20.40;91.00;;;;;;5032862;28;19910;-68
2023/04/13 13:35:58;;;;;;;;;;;20.50;91.20;;;;;;5029081;28;19936;-69
2023/04/13 13:38:24;;;;;;;;;;;20.50;91.00;;;;;;5036218;28;19979;-69
2023/04/13 13:40:50;;;;;;;;;;;20.20;90.30;;;;;;5022195;28;20027;-69
2023/04/13 13:43:20;;;;;;;;;;;19.70;90.20;;;;;;5041195;28;19968;-69
2023/04/13 13:45:46;;;;;;;;;;;19.40;90.20;;;;;;5034677;28;19921;-68
2023/04/13 13:48:12;;;;;;;;;;;19.30;90.30;;;;;;5023293;28;20314;-68
2023/04/13 13:50:37;;;;;;;;;;;19.20;90.10;;;;;;5039568;28;19921;-68
2023/04/13 13:53:03;;;;;;;;;;;19.20;90.10;;;;;;5045599;28;19916;-69
2023/04/13 13:55:29;;;;;;;;;;;19.10;90.00;;;;;;5022525;28;19992;-68
2023/04/13 13:57:55;;;;;;;;;;;19.10;90.10;;;;;;5041435;28;19924;-70
2023/04/13 14:00:21;;;;;;;;;;;19.10;90.10;;;;;;5021675;28;19913;-68
2023/04/13 14:02:47;;;;;;;;;;;19.10;89.80;;;;;;5042403;28;19913;-68
2023/04/13 14:05:12;;;;;;;;;;;18.80;89.20;;;;;;5042471;28;20382;-69
2023/04/13 14:07:40;;;;;;;;;;;18.40;88.60;;;;;;5040337;28;19971;-72
2023/04/13 14:10:07;;;;;;;;;;;17.70;87.90;;;;;;5042979;28;19975;-75
2023/04/13 14:12:32;;;;;;;;;;;16.90;87.20;;;;;;5037846;28;19913;-70
2023/04/13 14:14:58;;;;;;;;;;;16.20;88.10;;;;;;5043735;28;19924;-69
2023/04/13 14:17:23;;;;;;;;;;;15.70;88.70;;;;;;5039480;28;20322;-70
2023/04/13 14:19:49;;;;;;;;;;;15.50;89.30;;;;;;5039107;28;20254;-70
2023/04/13 14:22:15;;;;;;;;;;;15.40;89.60;;;;;;5037929;28;19913;-70